• Join FlightAware (Why Join?)
  • Login
  • US Flag 
02:21PM EDT


 

Airport Tracker/Info


-or-


 

Live Flight TrackerFlight Track Log ✈ BAW228 ✈ 12-May-2013 ✈ KBWI - EGLL / LHR

Flight Track Log - Related Links

Times and Time Zones

All times are in EDT time to prevent confusion due to time zone crossing. See the BAW228 flight status page for this flight to view local times or setup timezone preferences in your user account.

Time Position Orientation Groundspeed Altitude Reporting Facility
EDT Latitude Longitude Course Direction KTS MPH feet Rate Location/Type
10:31PM 39.1750 -76.7550 259° West 206 237 2,500  Level FlightAware
10:31PM 39.1490 -76.7810 218° Southwest 238 274 3,800 2,640 Climbing FlightAware
10:32PM 39.1200 -76.7760 172° South 267 307 4,700 2,400 Climbing FlightAware
10:32PM 39.1030 -76.7590 142° Southeast 286 329 5,200 2,700 Climbing FlightAware
10:32PM 39.0860 -76.7300 127° Southeast 293 337 6,300 2,400 Climbing FlightAware
10:34PM 39.1018 -76.5594 83° East 315 362 9,800 1,980 Climbing FlightAware ADS-B
10:34PM 39.1067 -76.5290 78° East 334 384 10,000 840 Climbing FlightAware ADS-B
10:34PM 39.1164 -76.4655 79° East 364 419 10,500 1,320 Climbing FlightAware ADS-B
10:35PM 39.1269 -76.4005 78° East 377 434 11,400 1,740 Climbing FlightAware ADS-B
10:35PM 39.1372 -76.3287 79° East 388 447 12,300 1,920 Climbing FlightAware ADS-B
10:36PM 39.1471 -76.2598 79° East 395 455 13,400 2,040 Climbing FlightAware ADS-B
10:36PM 39.1552 -76.2036 79° East 403 464 14,200 2,040 Climbing FlightAware ADS-B
10:37PM 39.1630 -76.1295 82° East 409 471 15,300 2,040 Climbing FlightAware ADS-B
10:37PM 39.1713 -76.0565 82° East 415 478 16,300 1,980 Climbing FlightAware ADS-B
10:38PM 39.1797 -75.9826 82° East 421 484 17,300 1,800 Climbing FlightAware ADS-B
10:38PM 39.1856 -75.9299 82° East 429 494 17,800 1,560 Climbing FlightAware ADS-B
10:38PM 39.1910 -75.9052 74° East 432 497 18,100 1,860 Climbing FlightAware ADS-B
10:39PM 39.1950 -75.8933 67° East 434 499 18,300 1,800 Climbing FlightAware ADS-B
10:39PM 39.2021 -75.8771 61° Northeast 434 499 18,500 2,100 Climbing FlightAware ADS-B
10:39PM 39.2138 -75.8534 57° Northeast 435 501 18,900 1,980 Climbing FlightAware ADS-B
10:39PM 39.2286 -75.8323 48° Northeast 434 499 19,200 1,680 Climbing FlightAware ADS-B
10:40PM 39.2718 -75.7767 45° Northeast 444 511 20,100 1,620 Climbing FlightAware ADS-B
10:40PM 39.3162 -75.7202 45° Northeast 453 521 20,900 1,560 Climbing FlightAware ADS-B
10:41PM 39.3626 -75.6603 45° Northeast 460 529 21,700 1,320 Climbing FlightAware ADS-B
10:41PM 39.4086 -75.6010 45° Northeast 471 542 22,300 1,260 Climbing FlightAware ADS-B
10:42PM 39.4561 -75.5385 45° Northeast 479 551 23,000 1,320 Climbing FlightAware ADS-B
10:42PM 39.5038 -75.4764 45° Northeast 490 564 23,700 1,260 Climbing FlightAware ADS-B
10:43PM 39.5526 -75.4128 45° Northeast 502 578 24,300 1,260 Climbing FlightAware ADS-B
10:43PM 39.6029 -75.3478 45° Northeast 513 590 25,000 1,380 Climbing FlightAware ADS-B
10:44PM 39.6537 -75.2816 45° Northeast 522 601 25,700 1,380 Climbing FlightAware ADS-B
10:44PM 39.7035 -75.2091 48° Northeast 531 611 26,400 1,200 Climbing FlightAware ADS-B
10:45PM 39.7609 -75.1280 47° Northeast 542 624 27,000 540 Climbing FlightAware ADS-B
10:45PM 39.8132 -75.0522 48° Northeast 559 643 27,000  Level FlightAware ADS-B
10:46PM 39.8672 -74.9766 47° Northeast 571 657 27,000  Level FlightAware ADS-B
10:46PM 39.9218 -74.8972 48° Northeast 574 661 27,000 240 Level FlightAware ADS-B
10:47PM 39.9758 -74.8203 47° Northeast 577 664 27,300 1,380 Climbing FlightAware ADS-B
10:47PM 40.0300 -74.7430 48° Northeast 574 661 28,400 1,680 Climbing FlightAware ADS-B
10:48PM 40.0835 -74.6661 48° Northeast 573 659 29,000 840 Climbing FlightAware ADS-B
10:48PM 40.1385 -74.5866 48° Northeast 574 661 29,300 1,200 Climbing FlightAware ADS-B
10:48PM 40.1700 -74.5364 51° Northeast 572 658 30,000 2,220 Climbing FlightAware ADS-B
10:49PM 40.1833 -74.5143 52° Northeast 571 657 30,300 2,040 Climbing FlightAware ADS-B
10:49PM 40.2081 -74.4623 58° Northeast 565 650 30,900 2,040 Climbing FlightAware ADS-B
10:49PM 40.2184 -74.4388 60° Northeast 563 648 31,200 2,460 Climbing FlightAware ADS-B
10:49PM 40.2297 -74.4116 61° Northeast 559 643 31,600 2,460 Climbing FlightAware ADS-B
10:50PM 40.2504 -74.3474 67° East 549 632 32,400 1,620 Climbing FlightAware ADS-B
10:50PM 40.2754 -74.2540 71° East 545 627 33,000 540 Climbing FlightAware ADS-B
10:51PM 40.3006 -74.1606 70° East 546 628 33,000  Level FlightAware ADS-B
10:51PM 40.3258 -74.0635 71° East 548 631 33,000  Level FlightAware ADS-B
10:52PM 40.3500 -73.9695 71° East 546 628 33,000  Level FlightAware ADS-B
10:52PM 40.3747 -73.8723 72° East 543 625 33,000  Level FlightAware ADS-B
10:53PM 40.3990 -73.7758 72° East 542 624 33,000  Level FlightAware ADS-B
10:53PM 40.4233 -73.6826 71° East 540 621 33,000  Level FlightAware ADS-B
10:54PM 40.4493 -73.5800 72° East 539 620 33,000  Level FlightAware ADS-B
10:54PM 40.4733 -73.4870 71° East 541 623 33,000  Level FlightAware ADS-B
10:55PM 40.4995 -73.3810 72° East 541 623 33,000  Level FlightAware ADS-B
10:55PM 40.5248 -73.2812 72° East 542 624 33,000  Level FlightAware ADS-B
10:56PM 40.5484 -73.1871 72° East 544 626 33,000  Level FlightAware ADS-B
10:56PM 40.5612 -73.1372 71° East 545 627 33,000  Level FlightAware ADS-B
10:56PM 40.5760 -73.0915 67° East 549 632 33,000  Level FlightAware ADS-B
10:56PM 40.5852 -73.0706 60° Northeast 551 634 33,000  Level FlightAware ADS-B
10:57PM 40.6020 -73.0337 59° Northeast 552 635 33,000  Level FlightAware ADS-B
10:57PM 40.6237 -72.9956 53° Northeast 554 638 33,000  Level FlightAware ADS-B
10:57PM 40.6388 -72.9728 49° Northeast 554 638 33,000  Level FlightAware ADS-B
10:57PM 40.6550 -72.9512 45° Northeast 554 638 33,000  Level FlightAware ADS-B
10:58PM 40.7135 -72.8838 41° Northeast 554 638 33,000  Level FlightAware ADS-B
10:58PM 40.7751 -72.8101 42° Northeast 554 638 33,000  Level FlightAware ADS-B
10:59PM 40.8343 -72.7430 41° Northeast 554 638 33,000  Level FlightAware ADS-B
10:59PM 40.8934 -72.6739 41° Northeast 555 639 33,000  Level FlightAware ADS-B
11:00PM 40.9521 -72.6064 41° Northeast 556 640 33,000  Level FlightAware ADS-B
11:00PM 41.0106 -72.5366 42° Northeast 557 641 33,000  Level FlightAware ADS-B
11:01PM 41.0688 -72.4688 41° Northeast 557 641 33,000  Level FlightAware ADS-B
11:01PM 41.1299 -72.3986 41° Northeast 557 641 33,000  Level FlightAware ADS-B
11:02PM 41.1915 -72.3259 42° Northeast 557 641 33,000  Level FlightAware ADS-B
11:03PM 41.2780 -72.2230 42° Northeast 559 643 33,000  Level FlightAware
11:03PM 41.3470 -72.1410 42° Northeast 560 644 33,000  Level FlightAware
11:04PM 41.4360 -72.0350 42° Northeast 561 646 33,000  Level FlightAware
11:05PM 41.5140 -71.9430 41° Northeast 563 648 33,000  Level FlightAware
11:05PM 41.6010 -71.8380 42° Northeast 565 650 33,000  Level FlightAware
11:06PM 41.6800 -71.7450 41° Northeast 565 650 33,000  Level FlightAware
11:07PM 41.7530 -71.6560 42° Northeast 566 651 33,000  Level FlightAware
11:07PM 41.8450 -71.5450 42° Northeast 567 652 33,000  Level FlightAware
11:08PM 41.9210 -71.4540 42° Northeast 567 652 33,000  Level FlightAware
11:09PM 42.0110 -71.3450 42° Northeast 567 652 33,000  Level FlightAware
11:10PM 42.0920 -71.2450 42° Northeast 566 651 33,000  Level FlightAware
11:10PM 42.1730 -71.1440 43° Northeast 562 647 33,000  Level FlightAware
11:11PM 42.2340 -71.0660 43° Northeast 567 652 33,000  Level FlightAware
11:12PM 42.3370 -70.9360 43° Northeast 566 651 33,000  Level FlightAware
11:12PM 42.4180 -70.8360 42° Northeast 565 650 33,000  Level FlightAware
11:13PM 42.5060 -70.7250 43° Northeast 563 648 33,000  Level FlightAware
11:14PM 42.5820 -70.6290 43° Northeast 561 646 33,000  Level FlightAware
11:14PM 42.6570 -70.5330 43° Northeast 559 643 33,000  Level FlightAware
11:15PM 42.7400 -70.4300 42° Northeast 558 642 33,000  Level FlightAware
11:16PM 42.8150 -70.3340 43° Northeast 556 640 33,000  Level FlightAware
11:17PM 42.8890 -70.2370 44° Northeast 555 639 33,000  Level FlightAware
11:17PM 42.9760 -70.1240 44° Northeast 554 638 33,000  Level FlightAware
11:18PM 43.0490 -70.0300 43° Northeast 554 638 33,000  Level FlightAware
11:19PM 43.1310 -69.9200 44° Northeast 554 638 33,000  Level FlightAware
11:19PM 43.2060 -69.8230 43° Northeast 553 636 33,000  Level FlightAware
11:20PM 43.2710 -69.7380 44° Northeast 553 636 33,000  Level FlightAware
11:21PM 43.3580 -69.6210 44° Northeast 548 631 33,000  Level FlightAware
11:21PM 43.4340 -69.5210 44° Northeast 548 631 33,000  Level FlightAware
11:22PM 43.5170 -69.4100 44° Northeast 548 631 33,000  Level FlightAware
11:23PM 43.5870 -69.3170 44° Northeast 549 632 33,000  Level FlightAware
11:24PM 43.6630 -69.2150 44° Northeast 550 633 33,000  Level FlightAware
11:24PM 43.7430 -69.1060 45° Northeast 550 633 33,000  Level FlightAware
11:25PM 43.8180 -69.0040 44° Northeast 550 633 33,000  Level FlightAware
11:26PM 43.8940 -68.9040 43° Northeast 550 633 33,000  Level FlightAware
11:26PM 43.9720 -68.7950 45° Northeast 556 640 33,000  Level FlightAware
11:27PM 44.0810 -68.6470 44° Northeast 556 640 33,000  Level FlightAware
11:28PM 44.1590 -68.5390 45° Northeast 557 641 33,000  Level FlightAware
11:29PM 44.2350 -68.4350 44° Northeast 555 639 33,000  Level FlightAware
11:29PM 44.3020 -68.3430 44° Northeast 544 626 33,000  Level FlightAware
11:30PM 44.3890 -68.2230 45° Northeast 535 616 33,000  Level FlightAware
11:31PM 44.4590 -68.1250 45° Northeast 530 610 33,000  Level FlightAware
11:32PM 44.5350 -68.0170 45° Northeast 528 608 33,000  Level FlightAware
11:32PM 44.6030 -67.9230 45° Northeast 526 605 33,000  Level FlightAware
11:33PM 44.6820 -67.8110 45° Northeast 526 605 33,000  Level FlightAware
11:34PM 44.7480 -67.7170 45° Northeast 526 605 33,000  Level FlightAware
11:34PM 44.8090 -67.6320 45° Northeast 528 608 33,000  Level FlightAware
11:35PM 44.8940 -67.5110 45° Northeast 533 613 33,000  Level FlightAware
11:36PM 44.9650 -67.4090 45° Northeast 531 611 33,000  Level FlightAware
11:36PM 45.0360 -67.3070 45° Northeast 534 615 33,000  Level FlightAware
11:37PM 45.1330 -67.1650 46° Northeast 534 615 33,000  Level FlightAware
11:39PM 45.2550 -66.9880 46° Northeast 534 615 33,000  Level FlightAware
11:40PM 45.3770 -66.8130 45° Northeast 534 615 33,000  Level FlightAware
11:41PM 45.4980 -66.6350 46° Northeast 534 615 33,000  Level FlightAware
11:42PM 45.6190 -66.4550 46° Northeast 541 623 33,000  Level FlightAware
11:43PM 45.6720 -66.3750 47° Northeast 537 618 33,000  Level FlightAware
11:43PM 45.7680 -66.2310 46° Northeast 547 629 33,000  Level FlightAware
11:45PM 45.8820 -66.0590 46° Northeast 546 628 33,000  Level FlightAware
11:45PM 45.9620 -65.9400 46° Northeast 549 632 33,000  Level FlightAware
11:46PM 46.0330 -65.8300 47° Northeast 549 632 33,000  Level FlightAware
11:47PM 46.0950 -65.7360 46° Northeast 554 638 33,000  Level FlightAware
11:47PM 46.1680 -65.6230 47° Northeast 553 636 33,000  Level FlightAware
11:48PM 46.2500 -65.5020 46° Northeast 554 638 33,000  Level FlightAware
11:49PM 46.3110 -65.4110 46° Northeast 554 638 33,000  Level FlightAware
11:49PM 46.3710 -65.3200 46° Northeast 554 638 33,000  Level FlightAware
11:50PM 46.4470 -65.2070 46° Northeast 554 638 33,000  Level FlightAware
11:51PM 46.5070 -65.1160 46° Northeast 554 638 33,000  Level FlightAware
11:52PM 46.5680 -65.0250 46° Northeast 554 638 33,000  Level FlightAware
11:52PM 46.6280 -64.9330 46° Northeast 554 638 33,000  Level FlightAware
11:53PM 46.6890 -64.8420 46° Northeast 554 638 33,000  Level FlightAware
11:54PM 46.7650 -64.7280 46° Northeast 554 638 33,000  Level FlightAware
11:54PM 46.8250 -64.6360 46° Northeast 554 638 33,000  Level FlightAware
11:55PM 46.8860 -64.5440 46° Northeast 554 638 33,000  Level FlightAware
11:56PM 46.9460 -64.4530 46° Northeast 554 638 33,000  Level FlightAware
11:56PM 47.0070 -64.3610 46° Northeast 554 638 33,000  Level FlightAware
11:57PM 47.0820 -64.2460 46° Northeast 554 638 33,000  Level FlightAware
11:58PM 47.2167 -63.9333 46° Northeast 530 610 33,000  Level Moncton Center
11:59PM 47.3167 -63.7833 45° Northeast 530 610 33,000  Level Moncton Center
12:00AM 47.4167 -63.6000 51° Northeast 540 621 33,000  Level Moncton Center
12:01AM 47.5167 -63.4500 45° Northeast 540 621 33,000  Level Moncton Center
12:02AM 47.6167 -63.2833 48° Northeast 540 621 33,000  Level Moncton Center
12:03AM 47.7167 -63.1000 51° Northeast 540 621 33,000  Level Moncton Center
12:04AM 47.8000 -62.9500 50° Northeast 530 610 33,000  Level Moncton Center
12:05AM 47.9000 -62.7667 51° Northeast 530 610 33,000  Level Moncton Center
12:06AM 48.0000 -62.6167 45° Northeast 530 610 33,000  Level Moncton Center
12:06AM 48.0333 -62.5333 59° Northeast 530 610 33,000  Level Gander Center
12:08AM 48.2000 -62.2833 45° Northeast 530 610 33,000  Level Moncton Center
12:09AM 48.3000 -62.1000 51° Northeast 530 610 33,000  Level Moncton Center
12:10AM 48.4000 -61.9333 48° Northeast 530 610 33,000  Level Moncton Center
12:11AM 48.4667 -61.7667 59° Northeast 520 598 33,000  Level Moncton Center
12:12AM 48.5833 -61.5833 46° Northeast 530 610 33,000  Level Moncton Center
12:13AM 48.6667 -61.4333 50° Northeast 520 598 33,000  Level Moncton Center
12:13AM 48.7167 -61.3500 48° Northeast 530 610 33,000  Level Gander Center
12:14AM 48.8167 -61.1833 48° Northeast 530 610 33,000  Level Gander Center
12:15AM 48.8500 -61.0833 63° Northeast 520 598 33,000  Level Moncton Center
12:16AM 48.9500 -60.9333 45° Northeast 520 598 33,000  Level Moncton Center
12:16AM 49.0000 -60.8500 48° Northeast 530 610 33,000  Level Gander Center
12:17AM 49.0833 -60.6667 55° Northeast 530 610 33,000  Level Gander Center
12:18AM 49.1833 -60.4833 50° Northeast 530 610 33,000  Level Gander Center
12:19AM 49.2833 -60.3333 44° Northeast 530 610 33,000  Level Gander Center
12:20AM 49.3333 -60.2000 60° Northeast 530 610 33,000  Level Moncton Center
12:21AM 49.4333 -60.0500 44° Northeast 530 610 33,000  Level Moncton Center
12:21AM 49.4667 -59.9667 58° Northeast 530 610 33,000  Level Gander Center
12:22AM 49.5500 -59.7833 55° Northeast 530 610 33,000  Level Gander Center
12:23AM 49.6500 -59.6000 50° Northeast 530 610 33,000  Level Gander Center
12:24AM 49.7000 -59.5000 52° Northeast 530 610 33,000  Level Moncton Center
12:25AM 49.7833 -59.3333 52° Northeast 530 610 33,000  Level Moncton Center
12:30AM 50.2610 -58.4340 52° Northeast 527 606 33,000  Level FlightAware
12:30AM 50.3170 -58.3010 57° Northeast 526 605 33,000  Level FlightAware
12:31AM 50.3710 -58.1750 56° Northeast 526 605 33,000 660 Level FlightAware
12:32AM 50.4360 -58.0210 56° Northeast 526 605 34,000 720 Climbing FlightAware
12:33AM 50.4830 -57.9070 57° Northeast 523 602 34,000  Level FlightAware
12:33AM 50.5360 -57.7840 56° Northeast 523 602 34,000  Level FlightAware
12:34AM 50.5820 -57.6760 56° Northeast 523 602 34,000  Level FlightAware
12:35AM 50.6400 -57.5420 56° Northeast 523 602 34,000  Level FlightAware
12:35AM 50.6860 -57.4340 56° Northeast 523 602 34,000  Level FlightAware
12:36AM 50.7320 -57.3270 56° Northeast 523 602 34,000  Level FlightAware
12:37AM 50.7780 -57.2190 56° Northeast 523 602 34,000  Level FlightAware
12:37AM 50.8240 -57.1110 56° Northeast 523 602 34,000  Level FlightAware
12:38AM 50.8700 -57.0030 56° Northeast 523 602 34,000  Level FlightAware
12:39AM 50.9270 -56.8680 56° Northeast 523 602 34,000  Level FlightAware
12:40AM 50.9730 -56.7590 56° Northeast 523 602 34,000  Level FlightAware
12:40AM 51.0190 -56.6510 56° Northeast 523 602 34,000  Level FlightAware
12:41AM 51.0650 -56.5430 56° Northeast 523 602 34,000  Level FlightAware
12:42AM 51.1230 -56.4070 56° Northeast 523 602 34,000  Level FlightAware
12:42AM 51.1690 -56.2980 56° Northeast 523 602 34,000  Level FlightAware
12:43AM 51.3000 -55.8167 56° Northeast 520 598 34,000  Level Gander Center
12:44AM 51.3667 -55.6333 60° Northeast 530 610 34,000  Level Gander Center
12:45AM 51.4500 -55.4333 56° Northeast 530 610 34,000  Level Gander Center
12:46AM 51.5167 -55.2333 62° Northeast 530 610 34,000  Level Gander Center
12:47AM 51.5833 -55.0000 65° Northeast 530 610 34,000  Level Gander Center
12:48AM 51.6667 -54.8333 51° Northeast 540 621 34,000  Level Gander Center
12:49AM 51.7500 -54.6000 60° Northeast 530 610 34,000  Level Gander Center
12:50AM 51.8333 -54.4000 56° Northeast 530 610 34,000  Level Gander Center
12:51AM 51.9000 -54.2000 62° Northeast 530 610 34,000  Level Gander Center
12:52AM 51.9667 -54.0000 62° Northeast 530 610 34,000  Level Gander Center
12:53AM 52.0500 -53.7667 60° Northeast 530 610 34,000  Level Gander Center
12:54AM 52.1333 -53.5833 53° Northeast 530 610 34,000  Level Gander Center
12:55AM 52.1833 -53.3833 68° East 520 598 34,000  Level Gander Center
12:56AM 52.2500 -53.1667 63° Northeast 520 598 34,000  Level Gander Center
12:57AM 52.3000 -52.9500 69° East 530 610 34,000  Level Gander Center
12:58AM 52.3667 -52.7167 65° Northeast 520 598 34,000  Level Gander Center
12:59AM 52.4000 -52.4667 78° East 520 598 34,000  Level Gander Center
01:00AM 52.4667 -52.2667 61° Northeast 520 598 34,000  Level Gander Center
01:01AM 52.5167 -52.0667 68° East 530 610 34,000  Level Gander Center
01:03AM 52.6167 -51.6167 70° East 530 610 34,000  Level Gander Center
01:04AM 52.6667 -51.3833 70° East 530 610 34,000  Level Gander Center
01:05AM 52.7000 -51.1667 76° East 530 610 34,000  Level Gander Center
01:07AM 52.7854 -50.8407 66° East  Level FlightAware Approximate
01:13AM 53.0000 -50.0000 76° East 516 594 34,000  Level ETMS Enhanced Traffic Management System
01:14AM 53.1027 -49.2650 77° East  Level FlightAware Approximate
01:15AM 53.1342 -49.0320 77° East  Level FlightAware Approximate
01:16AM 53.1652 -48.7986 77° East  Level FlightAware Approximate
01:17AM 53.1958 -48.5649 78° East  Level FlightAware Approximate
01:18AM 53.2260 -48.3309 78° East  Level FlightAware Approximate
01:19AM 53.2840 -47.8997 78° East 516 594 34,000  Level FlightAware Transoceanic
01:20AM 53.3133 -47.6647 78° East 516 594 34,000  Level FlightAware Transoceanic
01:21AM 53.3420 -47.4293 79° East 516 594 34,000  Level FlightAware Transoceanic
01:22AM 53.3704 -47.1937 79° East 516 594 34,000  Level FlightAware Transoceanic
01:23AM 53.3983 -46.9577 79° East 516 594 34,000  Level FlightAware Transoceanic
01:24AM 53.4257 -46.7214 79° East 516 594 34,000  Level FlightAware Transoceanic
01:25AM 53.4526 -46.4848 79° East 516 594 34,000  Level FlightAware Transoceanic
01:26AM 53.4791 -46.2479 79° East 516 594 34,000  Level FlightAware Transoceanic
01:27AM 53.5051 -46.0107 80° East 516 594 34,000  Level FlightAware Transoceanic
01:28AM 53.5306 -45.7732 80° East 516 594 34,000  Level FlightAware Transoceanic
01:29AM 53.5557 -45.5355 80° East 516 594 34,000  Level FlightAware Transoceanic
01:30AM 53.5803 -45.2974 80° East 516 594 34,000  Level FlightAware Transoceanic
01:31AM 53.6044 -45.0591 80° East 516 594 34,000  Level FlightAware Transoceanic
01:32AM 53.6280 -44.8205 81° East 516 594 34,000  Level FlightAware Transoceanic
01:33AM 53.6512 -44.5817 81° East 516 594 34,000  Level FlightAware Transoceanic
01:34AM 53.6739 -44.3426 81° East 516 594 34,000  Level FlightAware Transoceanic
01:35AM 53.6961 -44.1032 81° East 516 594 34,000  Level FlightAware Transoceanic
01:36AM 53.7178 -43.8636 81° East 516 594 34,000  Level FlightAware Transoceanic
01:37AM 53.7391 -43.6237 82° East 516 594 34,000  Level FlightAware Transoceanic
01:38AM 53.7599 -43.3837 82° East 516 594 34,000  Level FlightAware Transoceanic
01:39AM 53.7802 -43.1433 82° East 516 594 34,000  Level FlightAware Transoceanic
01:40AM 53.8000 -42.9028 82° East 516 594 34,000  Level FlightAware Transoceanic
01:41AM 53.8193 -42.6620 82° East 516 594 34,000  Level FlightAware Transoceanic
01:42AM 53.8382 -42.4210 83° East 516 594 34,000  Level FlightAware Transoceanic
01:43AM 53.8565 -42.1797 83° East 516 594 34,000  Level FlightAware Transoceanic
01:44AM 53.8744 -41.9383 83° East 516 594 34,000  Level FlightAware Transoceanic
01:45AM 53.8918 -41.6967 83° East 516 594 34,000  Level FlightAware Transoceanic
01:46AM 53.9087 -41.4549 83° East 516 594 34,000  Level FlightAware Transoceanic
01:47AM 53.9252 -41.2128 84° East 516 594 34,000  Level FlightAware Transoceanic
01:48AM 53.9411 -40.9706 84° East 516 594 34,000  Level FlightAware Transoceanic
01:49AM 53.9566 -40.7282 84° East 516 594 34,000  Level FlightAware Transoceanic
01:50AM 53.9715 -40.4856 84° East 516 594 34,000  Level FlightAware Transoceanic
01:51AM 53.9860 -40.2429 84° East 516 594 34,000  Level FlightAware Transoceanic
01:52AM 54.0000 -40.0002 84° East  Level FlightAware Approximate
01:53AM 54.0099 -39.7569 86° East  Level FlightAware Approximate
01:54AM 54.0098 -39.7571 86° East  Level FlightAware Approximate
01:55AM 54.0190 -39.5137 86° East  Level FlightAware Approximate
01:55AM 54.0000 -40.0000 86° East 528 608 34,000  Level ETMS Enhanced Traffic Management System
01:56AM 54.0278 -39.2701 86° East  Level FlightAware Approximate
01:57AM 54.0361 -39.0265 87° East  Level FlightAware Approximate
01:58AM 54.0439 -38.7827 87° East  Level FlightAware Approximate
01:59AM 54.0513 -38.5389 87° East  Level FlightAware Approximate
02:00AM 54.0581 -38.2949 87° East  Level FlightAware Approximate
02:01AM 54.0724 -37.7532 88° East 528 608 34,000  Level FlightAware Transoceanic
02:02AM 54.0778 -37.5031 88° East 528 608 34,000  Level FlightAware Transoceanic
02:03AM 54.0828 -37.2530 88° East 528 608 34,000  Level FlightAware Transoceanic
02:04AM 54.0872 -37.0028 88° East 528 608 34,000  Level FlightAware Transoceanic
02:05AM 54.0911 -36.7526 89° East 528 608 34,000  Level FlightAware Transoceanic
02:06AM 54.0945 -36.5023 89° East 528 608 34,000  Level FlightAware Transoceanic
02:07AM 54.0973 -36.2519 89° East 528 608 34,000  Level FlightAware Transoceanic
02:08AM 54.0997 -36.0016 89° East 528 608 34,000  Level FlightAware Transoceanic
02:09AM 54.1015 -35.7512 89° East 528 608 34,000  Level FlightAware Transoceanic
02:10AM 54.1028 -35.5008 90° East 528 608 34,000  Level FlightAware Transoceanic
02:11AM 54.1035 -35.2504 90° East 528 608 34,000  Level FlightAware Transoceanic
02:12AM 54.1038 -35.0000 90° East 528 608 34,000  Level FlightAware Transoceanic
02:13AM 54.1035 -34.7496 90° East 528 608 34,000  Level FlightAware Transoceanic
02:14AM 54.1028 -34.4992 90° East 528 608 34,000  Level FlightAware Transoceanic
02:15AM 54.1015 -34.2488 91° East 528 608 34,000  Level FlightAware Transoceanic
02:16AM 54.0997 -33.9984 91° East 528 608 34,000  Level FlightAware Transoceanic
02:17AM 54.0973 -33.7481 91° East 528 608 34,000  Level FlightAware Transoceanic
02:18AM 54.0945 -33.4977 91° East 528 608 34,000  Level FlightAware Transoceanic
02:19AM 54.0911 -33.2474 91° East 528 608 34,000  Level FlightAware Transoceanic
02:20AM 54.0872 -32.9972 92° East 528 608 34,000  Level FlightAware Transoceanic
02:21AM 54.0828 -32.7470 92° East 528 608 34,000  Level FlightAware Transoceanic
02:22AM 54.0778 -32.4969 92° East 528 608 34,000  Level FlightAware Transoceanic
02:23AM 54.0724 -32.2468 92° East 528 608 34,000  Level FlightAware Transoceanic
02:24AM 54.0664 -31.9968 92° East 528 608 34,000  Level FlightAware Transoceanic
02:25AM 54.0599 -31.7469 93° East 528 608 34,000  Level FlightAware Transoceanic
02:26AM 54.0529 -31.4970 93° East 528 608 34,000  Level FlightAware Transoceanic
02:27AM 54.0454 -31.2473 93° East 528 608 34,000  Level FlightAware Transoceanic
02:28AM 54.0373 -30.9976 93° East 528 608 34,000  Level FlightAware Transoceanic
02:29AM 54.0288 -30.7480 93° East 528 608 34,000  Level FlightAware Transoceanic
02:30AM 54.0197 -30.4986 94° East 528 608 34,000  Level FlightAware Transoceanic
02:31AM 54.0101 -30.2492 94° East 528 608 34,000  Level FlightAware Transoceanic
02:32AM 54.0003 -30.0059 94° East  Level FlightAware Approximate
02:33AM 53.9897 -29.7627 94° East  Level FlightAware Approximate
02:34AM 53.9865 -29.7691 96° East  Level FlightAware Approximate
02:34AM 54.0000 -30.0000 95° East 529 609 34,000  Level ETMS Enhanced Traffic Management System
02:35AM 53.9719 -29.5266 96° East  Level FlightAware Approximate
02:36AM 53.9568 -29.2843 96° East  Level FlightAware Approximate
02:37AM 53.9413 -29.0422 96° East  Level FlightAware Approximate
02:38AM 53.9252 -28.8002 96° East  Level FlightAware Approximate
02:39AM 53.9086 -28.5585 97° East  Level FlightAware Approximate
02:40AM 53.8889 -28.2620 97° East 529 609 34,000  Level FlightAware Transoceanic
02:41AM 53.8710 -28.0145 97° East 529 609 34,000  Level FlightAware Transoceanic
02:42AM 53.8526 -27.7673 97° East 529 609 34,000  Level FlightAware Transoceanic
02:43AM 53.8336 -27.5202 98° East 529 609 34,000  Level FlightAware Transoceanic
02:44AM 53.8142 -27.2734 98° East 529 609 34,000  Level FlightAware Transoceanic
02:45AM 53.7942 -27.0268 98° East 529 609 34,000  Level FlightAware Transoceanic
02:46AM 53.7738 -26.7805 98° East 529 609 34,000  Level FlightAware Transoceanic
02:47AM 53.7528 -26.5343 98° East 529 609 34,000  Level FlightAware Transoceanic
02:48AM 53.7314 -26.2885 98° East 529 609 34,000  Level FlightAware Transoceanic
02:49AM 53.7094 -26.0429 99° East 529 609 34,000  Level FlightAware Transoceanic
02:50AM 53.6869 -25.7975 99° East 529 609 34,000  Level FlightAware Transoceanic
02:51AM 53.6640 -25.5524 99° East 529 609 34,000  Level FlightAware Transoceanic
02:52AM 53.6405 -25.3076 99° East 529 609 34,000  Level FlightAware Transoceanic
02:53AM 53.6165 -25.0630 99° East 529 609 34,000  Level FlightAware Transoceanic
02:54AM 53.5921 -24.8188 100° East 529 609 34,000  Level FlightAware Transoceanic
02:55AM 53.5671 -24.5748 100° East 529 609 34,000  Level FlightAware Transoceanic
02:56AM 53.5417 -24.3311 100° East 529 609 34,000  Level FlightAware Transoceanic
02:57AM 53.5157 -24.0877 100° East 529 609 34,000  Level FlightAware Transoceanic
02:58AM 53.4893 -23.8446 100° East 529 609 34,000  Level FlightAware Transoceanic
02:59AM 53.4623 -23.6019 101° East 529 609 34,000  Level FlightAware Transoceanic
03:00AM 53.4349 -23.3594 101° East 529 609 34,000  Level FlightAware Transoceanic
03:01AM 53.4070 -23.1172 101° East 529 609 34,000  Level FlightAware Transoceanic
03:02AM 53.3786 -22.8754 101° East 529 609 34,000  Level FlightAware Transoceanic
03:03AM 53.3497 -22.6339 101° East 529 609 34,000  Level FlightAware Transoceanic
03:04AM 53.3203 -22.3927 102° East 529 609 34,000  Level FlightAware Transoceanic
03:05AM 53.2905 -22.1518 102° East 529 609 34,000  Level FlightAware Transoceanic
03:06AM 53.2601 -21.9113 102° East 529 609 34,000  Level FlightAware Transoceanic
03:07AM 53.2293 -21.6712 102° East 529 609 34,000  Level FlightAware Transoceanic
03:08AM 53.1979 -21.4313 102° East 529 609 34,000  Level FlightAware Transoceanic
03:09AM 53.1661 -21.1919 103° East 529 609 34,000  Level FlightAware Transoceanic
03:10AM 53.1339 -20.9528 103° East 529 609 34,000  Level FlightAware Transoceanic
03:11AM 53.1011 -20.7140 103° East 529 609 34,000  Level FlightAware Transoceanic
03:12AM 53.0679 -20.4756 103° East 529 609 34,000  Level FlightAware Transoceanic
03:13AM 53.0342 -20.2376 103° East 529 609 34,000  Level FlightAware Transoceanic
03:14AM 53.0009 -20.0059 103° East  Level FlightAware Approximate
03:15AM 52.9672 -19.7745 104° East  Level FlightAware Approximate
03:16AM 52.9993 -19.7739 90° East  Level FlightAware Approximate
03:17AM 52.9980 -19.5357 90° East  Level FlightAware Approximate
03:18AM 52.9963 -19.2976 91° East  Level FlightAware Approximate
03:19AM 52.9941 -19.0594 91° East  Level FlightAware Approximate
03:20AM 52.9914 -18.8213 91° East  Level FlightAware Approximate
03:21AM 52.9883 -18.5832 91° East  Level FlightAware Approximate
03:22AM 52.9847 -18.3452 91° East  Level FlightAware Approximate
03:23AM 52.9806 -18.1072 92° East  Level FlightAware Approximate
03:24AM 52.9760 -17.8692 92° East  Level FlightAware Approximate
03:25AM 52.9710 -17.6313 92° East  Level FlightAware Approximate
03:26AM 52.9655 -17.3935 92° East  Level FlightAware Approximate
03:27AM 52.9595 -17.1557 92° East  Level FlightAware Approximate
03:28AM 52.9530 -16.9180 92° East  Level FlightAware Approximate
03:29AM 52.9460 -16.6804 93° East  Level FlightAware Approximate
03:30AM 52.9386 -16.4428 93° East  Level FlightAware Approximate
03:31AM 52.9307 -16.2054 93° East  Level FlightAware Approximate
03:32AM 52.9224 -15.9680 93° East  Level FlightAware Approximate
03:33AM 52.9135 -15.7307 93° East  Level FlightAware Approximate
03:34AM 52.9042 -15.4935 94° East  Level FlightAware Approximate
03:35AM 52.8945 -15.2564 94° East  Level FlightAware Approximate
03:36AM 52.8842 -15.0195 94° East  Level FlightAware Approximate
03:37AM 52.8746 -14.7825 94° East  Level FlightAware Approximate
03:38AM 52.8647 -14.5456 94° East  Level FlightAware Approximate
03:39AM 52.8543 -14.3088 94° East  Level FlightAware Approximate
03:40AM 52.8434 -14.0721 94° East  Level FlightAware Approximate
03:41AM 52.8321 -13.8356 94° East  Level FlightAware Approximate
03:42AM 52.8203 -13.5991 95° East  Level FlightAware Approximate
03:43AM 52.8080 -13.3628 95° East  Level FlightAware Approximate
03:43AM 52.8770 -12.9120 95° East 549 632 34,000  Level FlightAware
03:43AM 52.8640 -12.7450 97° East 548 631 34,000 -240 Level FlightAware
03:44AM 52.8480 -12.5530 98° East 551 634 33,700 -480 Descending FlightAware
03:45AM 52.8340 -12.3860 98° East 550 633 33,400 -540 Descending FlightAware
03:46AM 52.8180 -12.2000 98° East 548 631 33,000 -300 Descending FlightAware
03:46AM 52.8050 -12.0420 98° East 547 629 33,000  Level FlightAware
03:47AM 52.7900 -11.8680 98° East 550 633 33,000  Level FlightAware
03:48AM 52.7750 -11.7020 98° East 553 636 33,000  Level FlightAware
03:48AM 52.7580 -11.5140 98° East 554 638 33,000  Level FlightAware
03:49AM 52.7440 -11.3680 99° East 553 636 33,000  Level FlightAware
03:50AM 52.7250 -11.1600 98° East 552 635 33,000  Level FlightAware
03:50AM 52.7090 -10.9940 99° East 552 635 33,000  Level FlightAware
03:51AM 52.6930 -10.8320 99° East 551 634 33,000  Level FlightAware
03:52AM 52.6750 -10.6420 99° East 548 631 33,000  Level FlightAware
03:52AM 52.6580 -10.4730 99° East 550 633 33,000  Level FlightAware
03:53AM 52.6390 -10.2870 99° East 550 633 33,000  Level FlightAware
03:54AM 52.6230 -10.1260 99° East 550 633 33,000  Level FlightAware
03:55AM 52.6030 -9.9400 100° East 550 633 33,000  Level FlightAware
03:55AM 52.5880 -9.7880 99° East 550 633 33,000  Level FlightAware
03:56AM 52.5740 -9.6430 99° East 551 634 33,000  Level FlightAware
03:57AM 52.5560 -9.4140 97° East 552 635 33,000  Level FlightAware
03:57AM 52.5420 -9.2530 98° East 551 634 33,000  Level FlightAware
03:58AM 52.5250 -9.0660 98° East 552 635 33,000 -1,500 Level FlightAware
03:58AM 52.5153 -8.9785 98° East 466 536 31,500 -2,580 Descending FlightAware UK
03:59AM 52.5091 -8.9038 98° East 466 536 31,500 3,900 Level FlightAware UK
03:59AM 52.5100 -8.9170 98° East 551 634 33,000  Climbing FlightAware
03:59AM 52.4988 -8.8047 98° East 466 536 31,500 -2,460 Descending FlightAware UK
03:59AM 52.4908 -8.7303 100° East 466 536 31,500 4,260 Level FlightAware UK
03:59AM 52.4910 -8.7400 100° East 554 638 33,000  Climbing FlightAware
04:00AM 52.4824 -8.6560 100° East 466 536 31,500 -2,760 Descending FlightAware UK
04:00AM 52.4742 -8.5820 100° East 468 539 31,500 3,000 Level FlightAware UK
04:00AM 52.4700 -8.5510 100° East 550 633 33,000  Climbing FlightAware
04:01AM 52.4598 -8.4590 100° East 464 534 31,500 -2,520 Descending FlightAware UK
04:01AM 52.4511 -8.3852 101° East 466 536 31,500 4,080 Level FlightAware UK
04:01AM 52.4510 -8.3910 101° East 550 633 33,000  Climbing FlightAware
04:01AM 52.4390 -8.2859 101° East 470 541 31,500 -2,400 Descending FlightAware UK
04:02AM 52.4302 -8.2123 101° East 472 543 31,500 3,600 Level FlightAware UK
04:02AM 52.4290 -8.2030 101° East 550 633 33,000  Climbing FlightAware
04:02AM 52.4181 -8.1140 101° East 472 543 31,500 -2,580 Descending FlightAware UK
04:02AM 52.4093 -8.0404 101° East 472 543 31,500 3,900 Level FlightAware UK
04:02AM 52.4090 -8.0390 101° East 548 631 33,000  Climbing FlightAware
04:03AM 52.3973 -7.9426 101° East 460 529 31,500 -2,460 Descending FlightAware UK
04:03AM 52.3883 -7.8693 101° East 462 532 31,500 3,420 Level FlightAware UK
04:03AM 52.3860 -7.8570 101° East 547 629 33,000  Climbing FlightAware
04:03AM 52.3763 -7.7717 101° East 464 534 31,500 -2,700 Descending FlightAware UK
04:04AM 52.3673 -7.6986 101° East 464 534 31,500 3,720 Level FlightAware UK
04:04AM 52.3670 -7.6980 101° East 548 631 33,000  Climbing FlightAware
04:04AM 52.3551 -7.6013 101° East 466 536 31,500 -2,520 Descending FlightAware UK
04:04AM 52.3460 -7.5282 102° East 466 536 31,500 4,080 Level FlightAware UK
04:04AM 52.3460 -7.5350 102° East 549 632 33,000  Climbing FlightAware
04:05AM 52.3334 -7.4309 102° East 468 539 31,500 -2,400 Descending FlightAware UK
04:05AM 52.3240 -7.3580 102° East 466 536 31,500 3,600 Level FlightAware UK
04:05AM 52.3220 -7.3500 102° East 549 632 33,000  Climbing FlightAware
04:05AM 52.3111 -7.2610 102° East 466 536 31,500 -2,580 Descending FlightAware UK
04:06AM 52.3014 -7.1882 102° East 464 534 31,500 3,900 Level FlightAware UK
04:06AM 52.3010 -7.1920 102° East 548 631 33,000  Climbing FlightAware
04:06AM 52.2883 -7.0907 102° East 462 532 31,500 -2,460 Descending FlightAware UK
04:06AM 52.2785 -7.0181 102° East 462 532 31,500 3,420 Level FlightAware UK
04:07AM 52.2760 -7.0020 102° East 549 632 33,000  Climbing FlightAware
04:07AM 52.2656 -6.9212 102° East 462 532 31,500 -2,700 Descending FlightAware UK
04:07AM 52.2557 -6.8486 103° East 462 532 31,500 3,720 Level FlightAware UK
04:07AM 52.2540 -6.8450 103° East 548 631 33,000  Climbing FlightAware
04:08AM 52.2423 -6.7518 103° East 464 534 31,500 -2,520 Descending FlightAware UK
04:08AM 52.2323 -6.6793 103° East 464 534 31,500 4,080 Level FlightAware UK
04:08AM 52.2320 -6.6800 103° East 548 631 33,000  Climbing FlightAware
04:08AM 52.2189 -6.5828 103° East 464 534 31,500 -2,400 Descending FlightAware UK
04:09AM 52.2088 -6.5105 103° East 466 536 31,500 4,500 Level FlightAware UK
04:09AM 52.2090 -6.5150 103° East 548 631 33,000  Climbing FlightAware
04:09AM 52.1988 -6.4381 103° East 464 534 31,500 -2,700 Descending FlightAware UK
04:09AM 52.1888 -6.3658 103° East 462 532 31,500 3,060 Level FlightAware UK
04:09AM 52.1840 -6.3380 103° East 547 629 33,000 -420 Climbing FlightAware
04:10AM 52.1718 -6.2456 103° East 460 529 31,300 -3,420 Descending FlightAware UK
04:10AM 52.1615 -6.1736 103° East 460 529 30,900 3,420 Descending FlightAware UK
04:10AM 52.1630 -6.1860 103° East 546 628 32,500 -1,680 Climbing FlightAware
04:10AM 52.1511 -6.1015 103° East 462 532 30,400 -4,380 Descending FlightAware UK
04:11AM 52.1407 -6.0293 103° East 464 534 30,100 1,980 Descending FlightAware UK
04:11AM 52.1350 -5.9890 103° East 550 633 31,400 -1,440 Climbing FlightAware
04:11AM 52.1234 -5.9079 103° East 464 534 29,400 -3,180 Descending FlightAware UK
04:11AM 52.1131 -5.8354 103° East 464 534 29,500 4,320 Climbing FlightAware UK
04:11AM 52.1110 -5.8280 103° East 549 632 31,000  Climbing FlightAware
04:12AM 52.0990 -5.7389 103° East 466 536 29,500 -2,400 Descending FlightAware UK
04:12AM 52.0883 -5.6668 104° East 466 536 29,500 4,500 Level FlightAware UK
04:12AM 52.0890 -5.6760 104° East 549 632 31,000  Climbing FlightAware
04:12AM 52.0770 -5.5950 104° East 468 539 29,500 -2,700 Descending FlightAware UK
04:13AM 52.0655 -5.5231 105° East 470 541 29,500 3,060 Level FlightAware UK
04:13AM 52.0600 -5.4960 105° East 553 636 31,000  Climbing FlightAware
04:13AM 52.0463 -5.4027 105° East 472 543 29,500 -2,460 Descending FlightAware UK
04:13AM 52.0350 -5.3299 104° East 474 545 29,500 4,260 Level FlightAware UK
04:13AM 52.0350 -5.3300 104° East 555 639 31,000  Climbing FlightAware
04:14AM 52.0235 -5.2573 104° East 474 545 29,500 -2,760 Descending FlightAware UK
04:14AM 52.0117 -5.1840 105° East 472 543 29,500 3,000 Level FlightAware UK
04:14AM 52.0050 -5.1450 105° East 553 636 31,000  Climbing FlightAware
04:15AM 51.9926 -5.0635 105° East 470 541 29,500  Descending FlightAware UK
04:15AM 51.9800 -4.9850 105° East 554 638 31,000  Climbing FlightAware
04:15AM 51.9656 -4.8950 105° East 474 545 29,500 -2,400 Descending FlightAware UK
04:16AM 51.9541 -4.8228 105° East 474 545 29,500 3,600 Level FlightAware UK
04:16AM 51.9510 -4.8080 105° East 553 636 31,000  Climbing FlightAware
04:16AM 51.9387 -4.7266 105° East 474 545 29,500 -2,580 Descending FlightAware UK
04:16AM 51.9272 -4.6544 104° East 474 545 29,500 3,900 Level FlightAware UK
04:16AM 51.9260 -4.6480 104° East 553 636 31,000  Climbing FlightAware
04:17AM 51.9115 -4.5584 104° East 474 545 29,500  Descending FlightAware UK
04:17AM 51.8910 -4.4670 104° East 549 632 31,000  Climbing FlightAware
04:17AM 51.8753 -4.3961 104° East 476 548 29,500  Descending FlightAware UK
04:18AM 51.8570 -4.3120 104° East 548 631 31,000 1,380 Climbing FlightAware
04:18AM 51.8230 -4.1580 110° East 546 628 31,000 -1,680 Level FlightAware
04:19AM 51.8097 -4.0943 110° East 474 545 29,500  Descending FlightAware UK
04:19AM 51.7870 -3.9930 110° East 544 626 31,000  Climbing FlightAware
04:20AM 51.7647 -3.8868 110° East 472 543 29,500  Descending FlightAware UK
04:20AM 51.7530 -3.8360 110° East 543 625 31,000 -180 Climbing FlightAware
04:20AM 51.7344 -3.7496 110° East 472 543 29,400 -2,880 Descending FlightAware UK
04:20AM 51.7190 -3.6811 110° East 476 548 29,200 4,200 Descending FlightAware UK
04:20AM 51.7190 -3.6840 110° East 546 628 30,800 -540 Climbing FlightAware
04:21AM 51.6981 -3.5895 110° East 478 550 29,000 -3,000 Descending FlightAware UK
04:21AM 51.6822 -3.5207 110° East 476 548 28,800 3,600 Descending FlightAware UK
04:21AM 51.6800 -3.5120 110° East 543 625 30,400 -300 Climbing FlightAware
04:22AM 51.6613 -3.4295 110° East 468 539 28,700 -3,120 Descending FlightAware UK
04:22AM 51.6460 -3.3628 110° East 468 539 28,500 3,960 Descending FlightAware UK
04:22AM 51.6450 -3.3580 110° East 536 617 30,100 -720 Climbing FlightAware
04:22AM 51.6305 -3.2954 110° East 470 541 28,300 -3,480 Descending FlightAware UK
04:22AM 51.6146 -3.2272 111° Southeast 472 543 28,200 2,580 Descending FlightAware UK
04:23AM 51.6060 -3.1930 111° Southeast 542 624 29,600 -840 Climbing FlightAware
04:23AM 51.5884 -3.1140 111° Southeast 480 552 27,800 -3,360 Descending FlightAware UK
04:23AM 51.5725 -3.0452 110° East 480 552 27,600 3,540 Descending FlightAware UK
04:23AM 51.5720 -3.0420 110° East 542 624 29,100 -1,260 Climbing FlightAware
04:24AM 51.5518 -2.9552 110° East 480 552 27,100 -3,840 Descending FlightAware UK
04:24AM 51.5359 -2.8873 111° Southeast 480 552 26,700 2,400 Descending FlightAware UK
04:24AM 51.5320 -2.8720 111° Southeast 540 621 28,100 3,000 Climbing FlightAware
04:24AM 51.5204 -2.8236 111° Southeast 542 624 27,600 -2,640 Descending FlightAware ADS-B
04:25AM 51.4910 -2.7006 111° Southeast 539 620 26,200 -2,820 Descending FlightAware ADS-B
04:25AM 51.4737 -2.6295 111° Southeast 543 625 25,200 -3,180 Descending FlightAware ADS-B
04:25AM 51.4647 -2.5667 103° East 548 631 24,400 -6,000 Descending FlightAware ADS-B
04:26AM 51.4589 -2.4968 103° East 486 559 22,000 -2,040 Descending FlightAware UK
04:26AM 51.4520 -2.4217 103° East 548 631 23,200 -840 Climbing FlightAware ADS-B
04:26AM 51.4435 -2.3280 103° East 474 545 21,400 -1,320 Descending FlightAware UK
04:26AM 51.4404 -2.2950 103° East 536 617 22,500 -2,280 Climbing FlightAware ADS-B
04:27AM 51.4331 -2.2122 103° East 462 532 20,300 -1,800 Descending FlightAware UK
04:27AM 51.4296 -2.1753 103° East 514 592 21,600 240 Climbing FlightAware ADS-B
04:28AM 51.4188 -2.0499 98° East 468 539 20,500 -3,720 Descending FlightAware ADS-B
04:28AM 51.4145 -1.9981 98° East 388 447 18,500 -3,120 Descending FlightAware UK
04:28AM 51.4099 -1.9418 98° East 439 505 18,800 -3,720 Climbing FlightAware ADS-B
04:28AM 51.4049 -1.8828 98° East 374 430 16,300 -3,120 Descending FlightAware UK
04:29AM 51.4013 -1.8439 98° East 422 486 17,200 -2,820 Climbing FlightAware ADS-B
04:29AM 51.3966 -1.7901 98° East 350 403 14,900 -2,040 Descending FlightAware UK
04:29AM 51.3932 -1.7540 98° East 396 456 16,200 -1,620 Climbing FlightAware ADS-B
04:29AM 51.3891 -1.7041 98° East 322 371 14,100 -2,160 Descending FlightAware UK
04:30AM 51.3840 -1.6462 98° East 368 423 14,800 -120 Climbing FlightAware ADS-B
04:30AM 51.3768 -1.5659 98° East 366 421 14,000 -3,360 Descending FlightAware ADS-B
04:31AM 51.3718 -1.5106 98° East 306 352 12,000 -1,380 Descending FlightAware UK
04:31AM 51.3688 -1.4807 98° East 361 415 13,300 -1,200 Climbing FlightAware ADS-B
04:31AM 51.3639 -1.4308 98° East 302 348 11,400 -600 Descending FlightAware UK
04:31AM 51.3611 -1.4028 98° East 346 398 13,000 2,220 Climbing FlightAware ADS-B
04:32AM 51.3540 -1.3280 99° East 324 373 13,000  Level FlightAware ADS-B
04:32AM 51.3470 -1.2569 99° East 324 373 13,000  Level FlightAware ADS-B
04:33AM 51.3402 -1.1885 99° East 323 372 13,000 -1,920 Level FlightAware ADS-B
04:33AM 51.3360 -1.1434 99° East 268 308 11,500  Descending FlightAware UK
04:33AM 51.3330 -1.1127 99° East 325 374 13,000 1,860 Climbing FlightAware ADS-B
04:34AM 51.3261 -1.0416 99° East 326 375 12,900 -2,400 Descending FlightAware ADS-B
04:34AM 51.3224 -1.0006 99° East 270 311 11,200 -840 Descending FlightAware UK
04:34AM 51.3193 -0.9704 99° East 323 372 12,500 1,200 Climbing FlightAware ADS-B
04:35AM 51.3127 -0.8981 98° East 317 365 12,100 -2,760 Descending FlightAware ADS-B
04:35AM 51.3093 -0.8602 98° East 268 308 10,400 -840 Descending FlightAware UK
04:35AM 51.3064 -0.8288 98° East 314 361 11,700 -840 Climbing FlightAware ADS-B
04:36AM 51.3030 -0.7913 98° East 266 306 10,000 -840 Descending FlightAware UK
04:36AM 51.2998 -0.7605 98° East 309 356 11,300 2,160 Climbing FlightAware ADS-B
04:36AM 51.2967 -0.7270 98° East 304 350 11,100 -840 Descending FlightAware ADS-B
04:36AM 51.2958 -0.7113 95° East 303 349 11,000 -480 Descending FlightAware ADS-B
04:36AM 51.2957 -0.6958 91° East 301 346 11,000  Level FlightAware ADS-B
04:37AM 51.2983 -0.6405 86° East 301 346 11,000 -360 Level FlightAware ADS-B
04:37AM 51.3010 -0.5737 86° East 302 348 10,700 -720 Descending FlightAware ADS-B
04:38AM 51.3038 -0.5073 86° East 300 345 10,300 -2,760 Descending FlightAware ADS-B
04:38AM 51.3052 -0.4704 86° East 256 295 8,600 -600 Descending FlightAware UK
04:38AM 51.3067 -0.4392 86° East 297 342 10,000 3,060 Climbing FlightAware ADS-B
04:39AM 51.3070 -0.4130 89° East 295 339 10,000  Level FlightAware ADS-B
04:39AM 51.3046 -0.3983 105° East 293 337 10,000  Level FlightAware ADS-B
04:39AM 51.3021 -0.3905 117° Southeast 291 335 10,000  Level FlightAware ADS-B
04:39AM 51.2903 -0.3465 113° Southeast 296 341 10,000  Level FlightAware ADS-B
04:39AM 51.2864 -0.3302 111° Southeast 295 339 10,000 -240 Level FlightAware ADS-B
04:40AM 51.2780 -0.2911 109° East 295 339 9,900 -480 Descending FlightAware ADS-B
04:40AM 51.2692 -0.2502 109° East 288 331 9,700 -720 Descending FlightAware ADS-B
04:40AM 51.2649 -0.2393 122° Southeast 281 323 9,600 -720 Descending FlightAware ADS-B
04:40AM 51.2623 -0.2347 132° Southeast 278 320 9,600 -1,020 Level FlightAware ADS-B
04:40AM 51.2594 -0.2303 137° Southeast 274 315 9,500 -480 Descending FlightAware ADS-B
04:40AM 51.2494 -0.2193 145° Southeast 265 305 9,500 -300 Level FlightAware ADS-B
04:40AM 51.2384 -0.2128 160° South 253 291 9,400 -840 Descending FlightAware ADS-B
04:40AM 51.2327 -0.2116 172° South 247 284 9,300 -600 Descending FlightAware ADS-B
04:41AM 51.2259 -0.2117 181° South 239 275 9,300 -540 Level FlightAware ADS-B
04:41AM 51.2190 -0.2135 189° South 236 272 9,200 -600 Descending FlightAware ADS-B
04:41AM 51.2059 -0.2229 204° Southwest 223 257 9,100 -720 Descending FlightAware ADS-B
04:41AM 51.2031 -0.2258 213° Southwest 221 254 9,000 -720 Descending FlightAware ADS-B
04:41AM 51.1989 -0.2323 224° Southwest 217 250 9,000  Level FlightAware ADS-B
04:41AM 51.1948 -0.2409 233° Southwest 212 244 9,000  Level FlightAware ADS-B
04:41AM 51.1926 -0.2463 237° Southwest 211 243 9,000  Level FlightAware ADS-B
04:41AM 51.1892 -0.2576 244° Southwest 210 242 9,000  Level FlightAware ADS-B
04:41AM 51.1878 -0.2664 256° West 209 241 9,000  Level FlightAware ADS-B
04:42AM 51.1868 -0.2787 263° West 207 238 9,000  Level FlightAware ADS-B
04:42AM 51.1870 -0.2879 272° West 208 239 9,000  Level FlightAware ADS-B
04:42AM 51.1876 -0.2956 277° West 209 241 9,000  Level FlightAware ADS-B
04:42AM 51.1886 -0.3015 285° West 210 242 9,000  Level FlightAware ADS-B
04:42AM 51.1912 -0.3134 289° West 212 244 9,000  Level FlightAware ADS-B
04:42AM 51.1943 -0.3216 301° West 215 247 9,000  Level FlightAware ADS-B
04:42AM 51.1975 -0.3281 308° West 217 250 9,000  Level FlightAware ADS-B
04:42AM 51.2005 -0.3339 310° West 221 254 9,000  Level FlightAware ADS-B
04:42AM 51.2066 -0.3412 323° Northwest 226 260 9,000  Level FlightAware ADS-B
04:42AM 51.2109 -0.3458 326° Northwest 226 260 9,000  Level FlightAware ADS-B
04:43AM 51.2222 -0.3585 325° Northwest 226 260 9,000  Level FlightAware ADS-B
04:43AM 51.2353 -0.3728 326° Northwest 224 258 9,000  Level FlightAware ADS-B
04:43AM 51.2485 -0.3879 324° Northwest 225 259 9,000  Level FlightAware ADS-B
04:43AM 51.2612 -0.4021 325° Northwest 225 259 9,000  Level FlightAware ADS-B
04:44AM 51.2745 -0.4164 326° Northwest 225 259 9,000  Level FlightAware ADS-B
04:44AM 51.2874 -0.4317 324° Northwest 226 260 9,000  Level FlightAware ADS-B
04:44AM 51.2978 -0.4432 325° Northwest 223 257 9,000  Level FlightAware ADS-B
04:44AM 51.3108 -0.4572 326° Northwest 224 258 9,000  Level FlightAware ADS-B
04:44AM 51.3159 -0.4623 328° Northwest 230 265 9,000 -600 Level FlightAware ADS-B
04:45AM 51.3205 -0.4649 340° North 234 269 8,900 -600 Descending FlightAware ADS-B
04:45AM 51.3262 -0.4675 345° North 240 276 8,900  Level FlightAware ADS-B
04:45AM 51.3331 -0.4681 356° North 245 282 8,900 -720 Level FlightAware ADS-B
04:45AM 51.3371 -0.4680 North 248 285 8,800 -780 Descending FlightAware ADS-B
04:45AM 51.3414 -0.4671 North 252 290 8,800  Level FlightAware ADS-B
04:45AM 51.3463 -0.4654 12° North 255 293 8,800 -780 Level FlightAware ADS-B
04:45AM 51.3507 -0.4630 19° North 259 298 8,700 -720 Descending FlightAware ADS-B
04:45AM 51.3561 -0.4588 26° Northeast 265 305 8,700  Level FlightAware ADS-B
04:45AM 51.3594 -0.4557 31° Northeast 268 308 8,700 -780 Level FlightAware ADS-B
04:45AM 51.3640 -0.4496 40° Northeast 272 313 8,600 -720 Descending FlightAware ADS-B
04:45AM 51.3676 -0.4437 46° Northeast 276 318 8,600  Level FlightAware ADS-B
04:45AM 51.3712 -0.4373 48° Northeast 280 322 8,600 -600 Level FlightAware ADS-B
04:45AM 51.3757 -0.4246 60° Northeast 284 327 8,500 -600 Descending FlightAware ADS-B
04:46AM 51.3777 -0.4167 68° East 286 329 8,500 -780 Level FlightAware ADS-B
04:46AM 51.3790 -0.4085 76° East 287 330 8,400 -720 Descending FlightAware ADS-B
04:46AM 51.3797 -0.3979 84° East 286 329 8,400  Level FlightAware ADS-B
04:46AM 51.3797 -0.3916 90° East 287 330 8,400  Level FlightAware ADS-B
04:46AM 51.3793 -0.3851 96° East 286 329 8,400 -720 Level FlightAware ADS-B
04:46AM 51.3775 -0.3727 103° East 284 327 8,300 -720 Descending FlightAware ADS-B
04:46AM 51.3761 -0.3667 111° Southeast 282 325 8,300 -420 Level FlightAware ADS-B
04:46AM 51.3678 -0.3458 122° Southeast 276 318 8,200 -720 Descending FlightAware ADS-B
04:46AM 51.3620 -0.3375 138° Southeast 269 310 8,100 -420 Descending FlightAware ADS-B
04:46AM 51.3525 -0.3265 144° Southeast 264 304 8,100 -420 Level FlightAware ADS-B
04:46AM 51.3472 -0.3217 150° Southeast 262 302 8,000 -600 Descending FlightAware ADS-B
04:47AM 51.3407 -0.3173 157° South 255 293 8,000  Level FlightAware ADS-B
04:47AM 51.3355 -0.3158 170° South 247 284 8,000  Level FlightAware ADS-B
04:47AM 51.3278 -0.3155 179° South 239 275 8,000  Level FlightAware ADS-B
04:47AM 51.3241 -0.3160 185° South 236 272 8,000  Level FlightAware ADS-B
04:47AM 51.3187 -0.3179 192° South 232 267 8,000  Level FlightAware ADS-B
04:47AM 51.3129 -0.3205 195° South 228 262 8,000  Level FlightAware ADS-B
04:47AM 51.3066 -0.3256 207° Southwest 222 255 8,000  Level FlightAware ADS-B
04:47AM 51.3034 -0.3293 216° Southwest 219 252 8,000  Level FlightAware ADS-B
04:47AM 51.3007 -0.3323 215° Southwest 216 249 8,000  Level FlightAware ADS-B
04:47AM 51.2948 -0.3425 227° Southwest 210 242 8,000  Level FlightAware ADS-B
04:48AM 51.2908 -0.3528 238° Southwest 208 239 8,000  Level FlightAware ADS-B
04:48AM 51.2894 -0.3568 241° Southwest 207 238 8,000  Level FlightAware ADS-B
04:48AM 51.2871 -0.3670 250° West 206 237 8,000  Level FlightAware ADS-B
04:48AM 51.2860 -0.3759 259° West 204 235 8,000  Level FlightAware ADS-B
04:48AM 51.2856 -0.3834 265° West 204 235 8,000  Level FlightAware ADS-B
04:48AM 51.2856 -0.3894 270° West 203 234 8,000  Level FlightAware ADS-B
04:48AM 51.2861 -0.3984 275° West 204 235 8,000  Level FlightAware ADS-B
04:48AM 51.2872 -0.4058 283° West 205 236 8,000  Level FlightAware ADS-B
04:48AM 51.2883 -0.4102 292° West 206 237 8,000  Level FlightAware ADS-B
04:48AM 51.2902 -0.4173 293° West 207 238 8,000  Level FlightAware ADS-B
04:48AM 51.2925 -0.4239 299° West 209 241 8,000  Level FlightAware ADS-B
04:48AM 51.2955 -0.4302 307° West 211 243 8,000  Level FlightAware ADS-B
04:48AM 51.2980 -0.4349 311° West 212 244 8,000 -480 Level FlightAware ADS-B
04:49AM 51.3064 -0.4448 324° Northwest 222 255 7,900 -600 Descending FlightAware ADS-B
04:49AM 51.3176 -0.4498 344° North 235 270 7,800 -420 Descending FlightAware ADS-B
04:49AM 51.3230 -0.4496 North 242 278 7,800 -660 Level FlightAware ADS-B
04:49AM 51.3392 -0.4462 North 246 283 7,600 -840 Descending FlightAware ADS-B
04:49AM 51.3477 -0.4427 14° North 254 292 7,500 -480 Descending FlightAware ADS-B
04:49AM 51.3530 -0.4383 27° Northeast 260 299 7,500 -720 Level FlightAware ADS-B
04:49AM 51.3577 -0.4326 37° Northeast 263 303 7,400 -720 Descending FlightAware ADS-B
04:50AM 51.3615 -0.4269 43° Northeast 268 308 7,400  Level FlightAware ADS-B
04:50AM 51.3639 -0.4222 50° Northeast 271 312 7,400 -900 Level FlightAware ADS-B
04:50AM 51.3699 -0.4020 65° Northeast 275 316 7,200 -780 Descending FlightAware ADS-B
04:50AM 51.3713 -0.3921 77° East 273 314 7,200 -600 Level FlightAware ADS-B
04:50AM 51.3736 -0.3627 83° East 265 305 7,000 -420 Descending FlightAware ADS-B
04:50AM 51.3763 -0.3305 82° East 253 291 7,000 180 Level FlightAware ADS-B
04:51AM 51.3787 -0.3034 82° East 239 275 7,100  Climbing FlightAware ADS-B
04:51AM 51.3812 -0.2743 82° East 232 267 7,000 -240 Descending FlightAware ADS-B
04:51AM 51.3837 -0.2468 82° East 239 275 7,000 -420 Level FlightAware ADS-B
04:51AM 51.3864 -0.2188 81° East 236 272 6,800 -720 Descending FlightAware ADS-B
04:52AM 51.3878 -0.2032 82° East 237 273 6,700 -780 Descending FlightAware ADS-B
04:52AM 51.3901 -0.1771 82° East 237 273 6,500 -780 Descending FlightAware ADS-B
04:52AM 51.3926 -0.1476 82° East 235 270 6,300 -780 Descending FlightAware ADS-B
04:52AM 51.3946 -0.1220 83° East 231 266 6,100 -780 Descending FlightAware ADS-B
04:53AM 51.3967 -0.0935 83° East 227 261 5,900 -720 Descending FlightAware ADS-B
04:53AM 51.3988 -0.0658 83° East 216 249 5,700 -600 Descending FlightAware ADS-B
04:53AM 51.4012 -0.0411 81° East 213 245 5,600 -300 Descending FlightAware ADS-B
04:53AM 51.4036 -0.0340 62° Northeast 210 242 5,600  Level FlightAware ADS-B
04:53AM 51.4061 -0.0290 51° Northeast 210 242 5,600 -420 Level FlightAware ADS-B
04:54AM 51.4149 -0.0198 33° Northeast 197 227 5,500 -360 Descending FlightAware ADS-B
04:54AM 51.4200 -0.0180 13° North 187 215 5,500 -300 Level FlightAware ADS-B
04:54AM 51.4342 -0.0169 North 184 212 5,400 -420 Descending FlightAware ADS-B
04:54AM 51.4472 -0.0157 North 183 211 5,300 -420 Descending FlightAware ADS-B
04:54AM 51.4614 -0.0155 North 181 208 5,200 -300 Descending FlightAware ADS-B
04:55AM 51.4642 -0.0166 346° North 177 204 5,200  Level FlightAware ADS-B
04:55AM 51.4677 -0.0204 326° Northwest 169 194 5,200  Level FlightAware ADS-B
04:55AM 51.4696 -0.0231 318° Northwest 166 191 5,200 -780 Level FlightAware ADS-B
04:55AM 51.4713 -0.0274 303° West 165 190 5,100 -540 Descending FlightAware ADS-B
04:55AM 51.4720 -0.0370 277° West 164 189 5,100  Level FlightAware ADS-B
04:55AM 51.4704 -0.0468 255° West 166 191 5,100 -540 Level FlightAware ADS-B
04:55AM 51.4672 -0.0658 255° West 162 186 4,900 -1,020 Descending FlightAware ADS-B
04:55AM 51.4664 -0.0753 262° West 165 190 4,700 -1,320 Descending FlightAware ADS-B
04:56AM 51.4653 -0.0950 265° West 165 190 4,400 -1,140 Descending FlightAware ADS-B
04:56AM 51.4650 -0.1079 268° West 155 178 4,200 -840 Descending FlightAware ADS-B
04:56AM 51.4651 -0.1189 271° West 146 168 4,100 -720 Descending FlightAware ADS-B
04:56AM 51.4654 -0.1348 272° West 141 162 3,900 -840 Descending FlightAware ADS-B
04:57AM 51.4655 -0.1505 271° West 140 161 3,700 -780 Descending FlightAware ADS-B
04:57AM 51.4654 -0.1671 269° West 142 163 3,500 -900 Descending FlightAware ADS-B
04:57AM 51.4654 -0.1861 270° West 142 163 3,200 -840 Descending FlightAware ADS-B
04:57AM 51.4654 -0.2051 270° West 145 167 3,000 -840 Descending FlightAware ADS-B
04:58AM 51.4653 -0.2266 270° West 145 167 2,700 -780 Descending FlightAware ADS-B
04:58AM 51.4650 -0.2570 269° West 149 171 2,300 -840 Descending FlightAware
04:58AM 51.4653 -0.2740 272° West 148 170 2,100 -3,300 Descending FlightAware ADS-B
04:59AM 51.4653 -0.3106 272° West 172 198 100 -780 Descending FlightAware UK
04:59AM 51.4650 -0.3210 272° West 133 153 1,500 1,680 Climbing FlightAware
05:00AM 51.4650 -0.3330 270° West 127 146 1,400 -720 Descending FlightAware
05:00AM 51.4650 -0.3700 270° West 127 146 900 -720 Descending FlightAware
05:01AM 51.4650 -0.3770 270° West 132 152 800 -360 Descending FlightAware
05:01AM 51.4650 -0.4000 270° West 123 142 600 -780 Descending FlightAware
05:01AM 51.4650 -0.4210 270° West 127 146 100 -540 Descending FlightAware
05:02AM 51.4650 -0.4440 270° West 127 146 100  Level FlightAware
05:03AM 51.4650 -0.4210 90° East 127 146 100  Level FlightAware